createdAt,value
2022-08-28T00:01:49.041Z,129.82
2022-08-28T00:04:16.201Z,117.27
2022-08-28T00:06:43.367Z,147.80
2022-08-28T00:09:11.456Z,147.85
2022-08-28T00:11:39.183Z,105.53
2022-08-28T00:14:07.102Z,62.72
2022-08-28T00:16:34.529Z,66.07
2022-08-28T00:19:05.107Z,85.45
2022-08-28T00:21:33.240Z,93.13
2022-08-28T00:24:00.861Z,95.70
2022-08-28T00:26:46.590Z,100.20
2022-08-28T00:29:13.814Z,102.72
2022-08-28T00:31:41.047Z,95.93
2022-08-28T00:34:08.768Z,118.18
2022-08-28T00:36:36.687Z,110.72
2022-08-28T00:39:05.266Z,146.63
2022-08-28T00:41:34.452Z,117.47
2022-08-28T00:44:09.804Z,129.00
2022-08-28T00:46:38.369Z,127.93
2022-08-28T00:49:06.472Z,128.07
2022-08-28T00:51:53.309Z,117.78
2022-08-28T00:54:21.162Z,134.10
2022-08-28T00:56:48.997Z,157.70
2022-08-28T00:59:18.374Z,163.77
2022-08-28T01:01:46.629Z,167.82
2022-08-28T01:04:18.106Z,136.88
2022-08-28T01:06:49.003Z,148.50
2022-08-28T01:09:21.031Z,143.88
2022-08-28T01:11:50.432Z,183.75
2022-08-28T01:14:22.183Z,169.70
2022-08-28T01:16:52.873Z,170.70
2022-08-28T01:19:23.541Z,153.55
2022-08-28T01:22:19.821Z,126.95
2022-08-28T01:24:47.917Z,146.23
2022-08-28T01:27:15.091Z,136.68
2022-08-28T01:29:42.367Z,138.25
2022-08-28T01:32:13.953Z,112.63
2022-08-28T01:34:41.187Z,131.30
2022-08-28T01:37:08.335Z,152.13
2022-08-28T01:39:35.513Z,141.48
2022-08-28T01:42:03.006Z,138.80
2022-08-28T01:44:30.156Z,117.68
2022-08-28T01:46:58.689Z,144.45
2022-08-28T01:49:29.342Z,149.73
2022-08-28T01:51:56.932Z,148.63
2022-08-28T01:54:25.250Z,188.73
2022-08-28T01:56:52.720Z,222.07
2022-08-28T01:59:19.858Z,202.10
2022-08-28T02:01:46.977Z,177.43
2022-08-28T02:04:14.489Z,185.18
2022-08-28T02:06:42.159Z,184.95
2022-08-28T02:09:13.527Z,168.48
2022-08-28T02:11:45.343Z,163.00
2022-08-28T02:14:14.835Z,164.38
2022-08-28T02:16:42.054Z,168.82
2022-08-28T02:19:09.206Z,166.95
2022-08-28T02:21:36.431Z,160.30
2022-08-28T02:24:04.837Z,163.82
2022-08-28T02:26:32.011Z,163.25
2022-08-28T02:28:59.378Z,163.10
2022-08-28T02:31:27.305Z,210.13
2022-08-28T02:33:56.699Z,224.63
2022-08-28T02:36:24.429Z,192.23
2022-08-28T02:38:56.969Z,205.75
2022-08-28T02:41:24.791Z,178.25
2022-08-28T02:43:52.312Z,182.55
2022-08-28T02:46:19.489Z,207.90
2022-08-28T02:48:47.284Z,221.23
2022-08-28T02:51:14.986Z,215.75
2022-08-28T02:53:42.745Z,215.48
2022-08-28T02:56:10.625Z,199.73
2022-08-28T02:58:37.747Z,211.80
2022-08-28T03:01:07.075Z,202.10
2022-08-28T03:03:34.987Z,191.05
2022-08-28T03:06:07.695Z,192.02
2022-08-28T03:08:35.159Z,229.40
2022-08-28T03:11:02.269Z,250.18
2022-08-28T03:13:30.161Z,268.38
2022-08-28T03:15:57.742Z,258.77
2022-08-28T03:18:25.905Z,232.82
2022-08-28T03:20:53.560Z,208.40
2022-08-28T03:23:26.562Z,221.85
2022-08-28T03:26:01.661Z,194.07
2022-08-28T03:28:30.671Z,228.98
2022-08-28T03:30:58.202Z,222.85
2022-08-28T03:33:26.273Z,226.95
2022-08-28T03:35:55.216Z,223.77
2022-08-28T03:38:22.644Z,208.38
2022-08-28T03:40:52.682Z,213.07
2022-08-28T03:43:21.788Z,197.20
2022-08-28T03:46:00.104Z,207.43
2022-08-28T03:48:28.520Z,201.68
2022-08-28T03:50:56.053Z,207.93
2022-08-28T03:53:24.022Z,231.32
2022-08-28T03:55:51.381Z,244.55
2022-08-28T03:58:19.354Z,219.70
2022-08-28T04:00:47.317Z,232.05
2022-08-28T04:03:14.965Z,227.00
2022-08-28T04:05:43.249Z,243.13
2022-08-28T04:08:11.946Z,247.25
2022-08-28T04:10:39.237Z,242.38
2022-08-28T04:13:06.385Z,256.60
2022-08-28T04:15:33.522Z,258.42
2022-08-28T04:18:00.836Z,248.82
2022-08-28T04:20:28.481Z,261.05
2022-08-28T04:22:55.709Z,245.18
2022-08-28T04:25:23.658Z,291.98
2022-08-28T04:27:52.459Z,289.38
2022-08-28T04:30:19.641Z,321.33
2022-08-28T04:32:46.801Z,303.35
2022-08-28T04:35:14.823Z,237.05
2022-08-28T04:37:43.725Z,211.27
2022-08-28T04:40:13.121Z,215.82
2022-08-28T04:42:40.390Z,178.55
2022-08-28T04:45:08.101Z,175.35
2022-08-28T04:47:38.875Z,195.48
2022-08-28T04:50:07.244Z,168.70
2022-08-28T04:52:34.711Z,193.52
2022-08-28T04:55:01.945Z,161.68
2022-08-28T04:57:31.253Z,166.32
2022-08-28T05:00:01.695Z,148.30
2022-08-28T05:02:28.865Z,130.38
2022-08-28T05:04:56.056Z,115.78
2022-08-28T05:07:23.167Z,113.30
2022-08-28T05:09:53.425Z,111.30
2022-08-28T05:12:20.556Z,110.05
2022-08-28T05:14:47.963Z,113.05
2022-08-28T05:17:15.233Z,137.80
2022-08-28T05:19:43.728Z,136.45
2022-08-28T05:22:10.979Z,144.48
2022-08-28T05:24:38.268Z,152.10
2022-08-28T05:27:05.671Z,161.80
2022-08-28T05:29:32.918Z,169.05
2022-08-28T05:32:00.279Z,159.88
2022-08-28T05:34:27.921Z,184.95
2022-08-28T05:36:55.147Z,190.82
2022-08-28T05:39:22.377Z,131.77
2022-08-28T05:41:49.517Z,174.75
2022-08-28T05:44:17.983Z,135.95
2022-08-28T05:46:47.654Z,152.18
2022-08-28T05:49:15.661Z,128.90
2022-08-28T05:51:43.142Z,122.05
2022-08-28T05:54:10.837Z,100.78
2022-08-28T05:56:39.212Z,103.38
2022-08-28T05:59:07.351Z,104.70
2022-08-28T06:01:37.032Z,128.77
2022-08-28T06:04:07.344Z,122.67
2022-08-28T06:06:35.596Z,111.15
2022-08-28T06:09:06.358Z,131.98
2022-08-28T06:11:33.909Z,111.95
2022-08-28T06:14:03.435Z,98.25
2022-08-28T06:16:34.886Z,124.25
2022-08-28T06:19:02.124Z,107.55
2022-08-28T06:21:29.686Z,91.65
2022-08-28T06:23:57.302Z,104.85
2022-08-28T06:26:24.463Z,87.78
2022-08-28T06:28:53.105Z,82.82
2022-08-28T06:31:23.665Z,83.28
2022-08-28T06:33:54.079Z,65.28
2022-08-28T06:36:21.800Z,65.90
2022-08-28T06:38:50.088Z,73.65
2022-08-28T06:41:17.232Z,63.28
2022-08-28T06:43:44.392Z,50.15
2022-08-28T06:46:11.573Z,49.83
2022-08-28T06:48:38.845Z,49.92
2022-08-28T06:51:07.702Z,44.28
2022-08-28T06:53:34.840Z,52.97
2022-08-28T06:56:06.632Z,54.80
2022-08-28T06:58:34.497Z,46.13
2022-08-28T07:01:25.399Z,41.03
2022-08-28T07:03:54.487Z,41.75
2022-08-28T07:06:22.907Z,44.03
2022-08-28T07:08:50.149Z,41.47
2022-08-28T07:11:19.823Z,46.33
2022-08-28T07:13:46.998Z,60.05
2022-08-28T07:16:15.583Z,51.78
2022-08-28T07:18:42.868Z,61.20
2022-08-28T07:21:12.559Z,60.05
2022-08-28T07:26:09.145Z,56.25
2022-08-28T07:28:36.559Z,52.00
2022-08-28T07:31:09.803Z,57.58
2022-08-28T07:33:37.578Z,45.65
2022-08-28T07:36:07.045Z,49.67
2022-08-28T07:38:34.208Z,55.40
2022-08-28T07:41:02.199Z,73.47
2022-08-28T07:43:47.943Z,183.02
2022-08-28T07:46:15.442Z,131.15
2022-08-28T07:48:43.121Z,139.20
2022-08-28T07:51:10.763Z,156.85
2022-08-28T07:53:38.025Z,95.60
2022-08-28T07:56:05.474Z,189.13
2022-08-28T07:58:32.877Z,239.55
2022-08-28T08:01:01.260Z,321.92
2022-08-28T08:03:29.862Z,433.17
2022-08-28T08:06:00.633Z,421.10
2022-08-28T08:08:27.772Z,425.35
2022-08-28T08:11:02.532Z,408.85
2022-08-28T08:13:31.195Z,376.83
2022-08-28T08:16:02.211Z,409.27
2022-08-28T08:18:29.395Z,395.80
2022-08-28T08:20:56.660Z,398.25
2022-08-28T08:23:24.029Z,394.10
2022-08-28T08:25:58.032Z,437.30
2022-08-28T08:28:25.629Z,421.92
2022-08-28T08:31:03.386Z,413.45
2022-08-28T08:33:30.574Z,384.33
2022-08-28T08:36:06.243Z,430.58
2022-08-28T08:38:33.934Z,443.02
2022-08-28T08:41:02.312Z,443.55
2022-08-28T08:43:31.252Z,490.48
2022-08-28T08:45:58.764Z,492.30
2022-08-28T08:48:26.058Z,466.15
2022-08-28T08:50:53.475Z,468.83
2022-08-28T08:53:39.417Z,490.10
2022-08-28T08:56:06.894Z,489.80
2022-08-28T08:58:41.571Z,519.55
2022-08-28T09:01:26.443Z,532.10
2022-08-28T09:04:23.151Z,486.73
2022-08-28T09:06:50.335Z,348.75
2022-08-28T09:09:29.466Z,401.83
2022-08-28T09:11:58.873Z,491.02
2022-08-28T09:14:26.887Z,486.23
2022-08-28T09:16:56.759Z,521.10
2022-08-28T09:19:23.912Z,536.92
2022-08-28T09:21:52.580Z,538.35
2022-08-28T09:24:22.510Z,511.38
2022-08-28T09:27:01.638Z,546.50
2022-08-28T09:29:30.802Z,499.08
2022-08-28T09:31:58.063Z,557.72
2022-08-28T09:34:27.365Z,536.85
2022-08-28T09:36:55.431Z,567.75
2022-08-28T09:39:22.599Z,548.58
2022-08-28T09:42:11.644Z,545.95
2022-08-28T09:44:51.851Z,582.93
2022-08-28T09:47:46.011Z,567.92
2022-08-28T09:50:24.075Z,504.58
2022-08-28T09:52:52.247Z,522.80
2022-08-28T09:55:36.868Z,451.15
2022-08-28T09:58:05.087Z,417.98
2022-08-28T10:00:34.799Z,446.73
2022-08-28T10:03:14.496Z,403.85
2022-08-28T10:05:46.571Z,476.52
2022-08-28T10:08:20.314Z,432.50
2022-08-28T10:10:51.268Z,386.98
2022-08-28T10:13:30.671Z,280.33
2022-08-28T10:16:18.109Z,306.58
2022-08-28T10:18:45.272Z,244.18
2022-08-28T10:21:35.216Z,259.48
2022-08-28T10:26:35.296Z,317.58
2022-08-28T10:29:14.813Z,320.55
2022-08-28T10:31:46.133Z,275.77
2022-08-28T10:34:19.635Z,287.20
2022-08-28T10:36:49.081Z,286.40
2022-08-28T10:39:16.222Z,268.80
2022-08-28T10:41:47.412Z,283.90
2022-08-28T10:44:17.311Z,284.40
2022-08-28T10:46:46.827Z,270.17
2022-08-28T10:49:16.892Z,283.52
2022-08-28T10:54:23.989Z,282.30
2022-08-28T10:56:56.021Z,283.67
2022-08-28T10:59:24.092Z,265.13
2022-08-28T11:01:51.673Z,281.73
2022-08-28T11:04:25.107Z,311.25
2022-08-28T11:07:12.929Z,301.02
2022-08-28T11:09:40.101Z,314.58
2022-08-28T11:12:28.482Z,317.83
2022-08-28T11:14:55.945Z,240.65
2022-08-28T11:17:25.133Z,272.10
2022-08-28T11:20:10.845Z,278.40
2022-08-28T11:22:41.110Z,276.30
2022-08-28T11:25:15.901Z,247.20
2022-08-28T11:28:03.038Z,254.85
2022-08-28T11:30:33.209Z,260.70
2022-08-28T11:35:30.160Z,245.85
2022-08-28T11:37:58.286Z,269.23
2022-08-28T11:40:34.358Z,270.20
2022-08-28T11:43:27.682Z,271.00
2022-08-28T11:45:54.944Z,265.65
2022-08-28T11:48:37.448Z,261.38
2022-08-28T11:51:10.425Z,234.25
2022-08-28T11:53:37.513Z,240.98
2022-08-28T11:56:09.607Z,253.20
2022-08-28T11:58:42.211Z,264.77
2022-08-28T12:01:12.325Z,256.30
2022-08-28T12:03:41.804Z,250.43
2022-08-28T12:06:09.717Z,241.20
2022-08-28T12:08:57.111Z,260.15
2022-08-28T12:11:42.874Z,256.65
2022-08-28T12:14:33.317Z,245.90
2022-08-28T12:17:00.438Z,267.38
2022-08-28T12:19:28.762Z,265.23
2022-08-28T12:21:56.167Z,271.65
2022-08-28T12:24:24.524Z,296.88
2022-08-28T12:26:54.247Z,289.00
2022-08-28T12:29:35.607Z,299.27
2022-08-28T12:32:12.514Z,256.95
2022-08-28T12:34:42.484Z,265.63
2022-08-28T12:37:28.091Z,242.23
2022-08-28T12:39:57.274Z,280.92
2022-08-28T12:42:27.374Z,268.90
2022-08-28T12:44:59.848Z,270.27
2022-08-28T12:47:28.082Z,264.35
2022-08-28T12:49:55.282Z,264.92
2022-08-28T12:52:24.346Z,259.60
2022-08-28T12:54:51.993Z,278.70
2022-08-28T12:57:21.012Z,268.67
2022-08-28T12:59:49.314Z,255.85
2022-08-28T13:02:48.767Z,265.13
2022-08-28T13:05:29.421Z,268.73
2022-08-28T13:07:57.162Z,265.33
2022-08-28T13:10:30.469Z,261.17
2022-08-28T13:13:01.982Z,263.95
2022-08-28T13:15:50.183Z,286.48
2022-08-28T13:18:37.571Z,264.13
2022-08-28T13:21:13.855Z,288.08
2022-08-28T13:23:41.442Z,292.55
2022-08-28T13:26:09.053Z,267.02
2022-08-28T13:28:37.498Z,282.13
2022-08-28T13:31:04.916Z,287.38
2022-08-28T13:33:32.539Z,274.67
2022-08-28T13:36:19.048Z,280.63
2022-08-28T13:38:46.219Z,295.73
2022-08-28T13:41:13.350Z,265.23
2022-08-28T13:43:44.944Z,269.17
2022-08-28T13:46:12.295Z,294.83
2022-08-28T13:48:39.473Z,276.05
2022-08-28T13:51:10.564Z,283.77
2022-08-28T13:53:38.645Z,275.52
2022-08-28T13:56:06.282Z,288.42
2022-08-28T13:58:33.707Z,283.88
2022-08-28T14:01:01.247Z,285.30
2022-08-28T14:03:38.554Z,269.50
2022-08-28T14:06:07.983Z,286.60
2022-08-28T14:08:35.358Z,265.63
2022-08-28T14:11:02.518Z,284.27
2022-08-28T14:13:29.799Z,275.05
2022-08-28T14:15:57.362Z,276.70
2022-08-28T14:18:28.095Z,267.00
2022-08-28T14:20:55.196Z,245.98
2022-08-28T14:23:23.055Z,273.70
2022-08-28T14:25:50.469Z,264.98
2022-08-28T14:28:18.060Z,249.98
2022-08-28T14:30:46.176Z,244.98
2022-08-28T14:33:15.342Z,248.00
2022-08-28T14:35:42.683Z,248.93
2022-08-28T14:38:10.390Z,271.95
2022-08-28T14:40:38.671Z,275.05
2022-08-28T14:43:06.782Z,265.92
2022-08-28T14:45:34.360Z,269.02
2022-08-28T14:48:01.467Z,272.63
2022-08-28T14:50:28.631Z,264.73
2022-08-28T14:52:55.713Z,268.13
2022-08-28T14:55:22.885Z,260.25
2022-08-28T14:57:51.209Z,271.20
2022-08-28T15:00:18.831Z,263.77
2022-08-28T15:02:46.232Z,279.13
2022-08-28T15:05:13.408Z,259.45
2022-08-28T15:07:40.511Z,260.35
2022-08-28T15:10:07.749Z,257.65
2022-08-28T15:15:20.180Z,257.13
2022-08-28T15:17:47.503Z,259.92
2022-08-28T15:20:14.984Z,252.48
2022-08-28T15:22:42.246Z,262.40
2022-08-28T15:25:09.344Z,249.80
2022-08-28T15:27:36.666Z,270.75
2022-08-28T15:30:04.553Z,251.68
2022-08-28T15:32:32.251Z,274.67
2022-08-28T15:34:59.398Z,253.00
2022-08-28T15:37:26.630Z,266.05
2022-08-28T15:40:17.386Z,268.70
2022-08-28T15:42:45.390Z,250.00
2022-08-28T15:45:12.761Z,237.85
2022-08-28T15:47:40.717Z,240.65
2022-08-28T15:50:08.116Z,237.82
2022-08-28T15:52:38.934Z,259.23
2022-08-28T15:55:06.343Z,253.95
2022-08-28T15:57:33.535Z,261.35
2022-08-28T16:00:00.649Z,253.57
2022-08-28T16:02:27.941Z,265.95
2022-08-28T16:04:55.327Z,238.02
2022-08-28T16:07:23.549Z,250.70
2022-08-28T16:09:51.073Z,250.13
2022-08-28T16:12:18.462Z,247.00
2022-08-28T16:14:45.913Z,261.40
2022-08-28T16:17:15.437Z,262.02
2022-08-28T16:19:42.680Z,293.45
2022-08-28T16:22:11.269Z,286.77
2022-08-28T16:24:38.608Z,280.10
2022-08-28T16:27:06.450Z,291.35
2022-08-28T16:29:37.107Z,284.25
2022-08-28T16:32:04.908Z,274.45
2022-08-28T16:34:35.228Z,252.85
2022-08-28T16:37:04.225Z,262.33
2022-08-28T16:39:31.343Z,268.70
2022-08-28T16:41:58.856Z,265.55
2022-08-28T16:44:26.590Z,255.55
2022-08-28T16:46:54.484Z,272.20
2022-08-28T16:49:22.663Z,283.13
2022-08-28T16:51:49.822Z,282.67
2022-08-28T16:54:21.483Z,267.38
2022-08-28T16:56:48.940Z,292.63
2022-08-28T16:59:23.512Z,282.85
2022-08-28T17:01:53.896Z,282.52
2022-08-28T17:04:22.008Z,297.63
2022-08-28T17:06:49.210Z,299.05
2022-08-28T17:09:16.355Z,300.80
2022-08-28T17:11:43.477Z,294.95
2022-08-28T17:14:12.012Z,283.58
2022-08-28T17:16:39.290Z,297.95
2022-08-28T17:19:06.452Z,312.48
2022-08-28T17:21:52.254Z,297.40
2022-08-28T17:24:19.483Z,297.42
2022-08-28T17:26:46.813Z,297.15
2022-08-28T17:29:14.019Z,312.52
2022-08-28T17:31:41.265Z,324.95
2022-08-28T17:34:08.781Z,343.02
2022-08-28T17:36:37.047Z,379.52
2022-08-28T17:39:06.763Z,379.02
2022-08-28T17:41:34.019Z,370.15
2022-08-28T17:44:01.626Z,361.20
2022-08-28T17:46:30.862Z,378.35
2022-08-28T17:49:00.247Z,379.05
2022-08-28T17:51:41.894Z,385.35
2022-08-28T17:54:15.252Z,392.98
2022-08-28T17:56:42.982Z,395.52
2022-08-28T17:59:11.037Z,378.10
2022-08-28T18:01:38.848Z,421.40
2022-08-28T18:04:06.269Z,397.30
2022-08-28T18:06:33.824Z,389.73
2022-08-28T18:09:01.289Z,408.83
2022-08-28T18:11:28.994Z,389.60
2022-08-28T18:13:58.036Z,402.00
2022-08-28T18:16:30.364Z,401.10
2022-08-28T18:18:59.001Z,404.70
2022-08-28T18:21:26.208Z,393.73
2022-08-28T18:23:53.348Z,398.30
2022-08-28T18:26:20.615Z,393.73
2022-08-28T18:28:47.989Z,409.80
2022-08-28T18:31:17.357Z,417.55
2022-08-28T18:33:44.714Z,433.08
2022-08-28T18:36:13.519Z,406.15
2022-08-28T18:38:41.310Z,412.25
2022-08-28T18:41:10.778Z,404.15
2022-08-28T18:43:39.224Z,403.10
2022-08-28T18:46:09.754Z,418.40
2022-08-28T18:48:37.225Z,418.02
2022-08-28T18:51:06.229Z,407.10
2022-08-28T18:53:33.468Z,456.63
2022-08-28T18:56:01.817Z,462.02
2022-08-28T18:58:31.057Z,436.25
2022-08-28T19:01:00.985Z,421.88
2022-08-28T19:03:28.664Z,436.92
2022-08-28T19:05:56.680Z,414.48
2022-08-28T19:08:25.050Z,416.20
2022-08-28T19:10:52.877Z,441.23
2022-08-28T19:13:20.053Z,436.25
2022-08-28T19:15:53.786Z,420.33
2022-08-28T19:18:21.107Z,435.23
2022-08-28T19:20:48.420Z,396.23
2022-08-28T19:23:17.769Z,398.38
2022-08-28T19:25:46.070Z,377.38
2022-08-28T19:28:13.895Z,426.95
2022-08-28T19:30:41.337Z,428.85
2022-08-28T19:33:08.659Z,408.05
2022-08-28T19:35:35.879Z,412.30
2022-08-28T19:38:03.071Z,398.08
2022-08-28T19:40:30.364Z,387.08
2022-08-28T19:42:57.629Z,432.92
2022-08-28T19:45:29.698Z,466.48
2022-08-28T19:47:56.904Z,446.95
2022-08-28T19:50:24.379Z,451.52
2022-08-28T19:52:51.673Z,415.05
2022-08-28T19:55:21.596Z,451.23
2022-08-28T19:57:49.264Z,424.55
2022-08-28T20:00:18.226Z,449.45
2022-08-28T20:02:46.042Z,451.27
2022-08-28T20:05:13.452Z,485.27
2022-08-28T20:07:40.954Z,520.63
2022-08-28T20:10:08.230Z,530.05
2022-08-28T20:12:35.702Z,574.08
2022-08-28T20:15:05.087Z,606.38
2022-08-28T20:17:34.067Z,592.80
2022-08-28T20:20:11.237Z,543.15
2022-08-28T20:22:38.794Z,569.47
2022-08-28T20:25:07.548Z,525.30
2022-08-28T20:27:34.943Z,524.58
2022-08-28T20:30:10.451Z,531.92
2022-08-28T20:32:40.127Z,499.58
2022-08-28T20:35:08.608Z,508.95
2022-08-28T20:37:45.088Z,519.05
2022-08-28T20:40:17.368Z,554.22
2022-08-28T20:42:45.192Z,557.40
2022-08-28T20:45:13.303Z,539.17
2022-08-28T20:47:40.427Z,518.53
2022-08-28T20:50:07.929Z,543.10
2022-08-28T20:52:35.033Z,526.35
2022-08-28T20:55:02.210Z,520.97
2022-08-28T20:57:29.294Z,507.13
2022-08-28T20:59:56.422Z,522.05
2022-08-28T21:02:24.817Z,532.85
2022-08-28T21:04:53.355Z,514.85
2022-08-28T21:07:21.468Z,498.42
2022-08-28T21:10:05.055Z,505.70
2022-08-28T21:12:35.001Z,510.35
2022-08-28T21:15:02.355Z,557.67
2022-08-28T21:17:30.765Z,537.60
2022-08-28T21:20:03.160Z,526.30
2022-08-28T21:22:32.916Z,534.15
2022-08-28T21:25:01.854Z,504.38
2022-08-28T21:27:29.436Z,526.65
2022-08-28T21:29:57.999Z,497.58
2022-08-28T21:32:25.430Z,489.75
2022-08-28T21:34:53.076Z,486.20
2022-08-28T21:37:20.183Z,486.92
2022-08-28T21:39:47.397Z,492.27
2022-08-28T21:42:14.572Z,472.95
2022-08-28T21:44:50.256Z,463.90
2022-08-28T21:47:18.888Z,466.73
2022-08-28T21:49:49.303Z,479.67
2022-08-28T21:52:16.793Z,484.75
2022-08-28T21:54:43.892Z,456.92
2022-08-28T21:57:11.014Z,517.38
2022-08-28T21:59:38.903Z,505.33
2022-08-28T22:02:06.366Z,503.38
2022-08-28T22:04:33.780Z,547.15
2022-08-28T22:07:00.974Z,531.78
2022-08-28T22:09:28.161Z,525.97
2022-08-28T22:11:55.229Z,505.38
2022-08-28T22:14:25.044Z,507.25
2022-08-28T22:16:52.437Z,500.38
2022-08-28T22:19:19.754Z,528.28
2022-08-28T22:22:05.384Z,490.70
2022-08-28T22:24:32.552Z,499.33
2022-08-28T22:26:59.954Z,487.75
2022-08-28T22:29:27.272Z,478.65
2022-08-28T22:31:54.712Z,531.90
2022-08-28T22:34:21.868Z,515.38
2022-08-28T22:36:49.001Z,515.88
2022-08-28T22:39:16.094Z,502.15
2022-08-28T22:41:43.206Z,510.35
2022-08-28T22:44:10.324Z,487.15
2022-08-28T22:46:37.489Z,501.15
2022-08-28T22:49:05.005Z,473.92
2022-08-28T22:51:34.270Z,488.25
2022-08-28T22:54:01.402Z,456.15
2022-08-28T22:56:28.588Z,466.55
2022-08-28T22:58:55.715Z,449.98
2022-08-28T23:01:24.524Z,444.63
2022-08-28T23:03:51.984Z,504.13
2022-08-28T23:06:21.414Z,487.40
2022-08-28T23:08:48.533Z,471.63
2022-08-28T23:11:15.875Z,459.92
2022-08-28T23:13:43.043Z,480.77
2022-08-28T23:16:10.489Z,492.23
2022-08-28T23:19:06.540Z,501.02
2022-08-28T23:21:26.618Z,511.83
2022-08-28T23:23:54.918Z,505.20
2022-08-28T23:26:22.086Z,490.95
2022-08-28T23:28:49.298Z,483.92
2022-08-28T23:31:16.395Z,456.40
2022-08-28T23:33:43.708Z,490.63
2022-08-28T23:36:11.178Z,491.70
2022-08-28T23:38:42.874Z,507.88
2022-08-28T23:41:10.787Z,494.08
2022-08-28T23:43:37.977Z,480.92
2022-08-28T23:46:05.482Z,477.63
2022-08-28T23:48:33.148Z,499.25
2022-08-28T23:51:02.859Z,500.30
2022-08-28T23:53:30.672Z,494.65
2022-08-28T23:55:59.537Z,489.08
2022-08-28T23:58:31.939Z,477.17
